Time;durP1;ratioP1;P1;durP2;ratioP2;P2;SDS_P1;SDS_P2;PMS_P1;PMS_P2;Temp;Humidity;BMP_temperature;BMP_pressure;BME280_temperature;BME280_humidity;BME280_pressure;Samples;Min_cycle;Max_cycle;Signal;HPM_P1;HPM_P2
2023/06/03 00:02:10;;;;;;;1.88;1.20;;;11.90;99.90;;;;;;5055034;28;20125;-38
2023/06/03 00:04:41;;;;;;;2.25;1.20;;;11.90;99.90;;;;;;5041360;28;20069;-36
2023/06/03 00:07:07;;;;;;;1.90;1.40;;;11.80;99.90;;;;;;5047372;28;20075;-37
2023/06/03 00:09:34;;;;;;;1.95;1.10;;;11.80;99.90;;;;;;5054720;28;20056;-36
2023/06/03 00:12:00;;;;;;;3.03;1.30;;;11.70;99.90;;;;;;5058643;28;20077;-36
2023/06/03 00:14:25;;;;;;;2.38;1.20;;;11.70;99.90;;;;;;5067648;28;20068;-37
2023/06/03 00:16:52;;;;;;;2.72;1.23;;;11.60;99.90;;;;;;5050690;28;20614;-38
2023/06/03 00:19:18;;;;;;;1.98;1.20;;;11.60;99.90;;;;;;5053097;28;20036;-35
2023/06/03 00:21:50;;;;;;;3.20;1.20;;;11.60;99.90;;;;;;5052665;28;20037;-36
2023/06/03 00:24:19;;;;;;;2.28;1.30;;;11.50;99.90;;;;;;5050001;28;20172;-36
2023/06/03 00:26:45;;;;;;;3.25;1.20;;;11.50;99.90;;;;;;5052670;28;20025;-38
2023/06/03 00:29:11;;;;;;;1.50;0.90;;;11.40;99.90;;;;;;5061284;28;20045;-36
2023/06/03 00:31:37;;;;;;;2.50;1.05;;;11.30;99.90;;;;;;5052654;28;20152;-36
2023/06/03 00:34:03;;;;;;;1.45;1.20;;;11.30;99.90;;;;;;5049628;28;20039;-36
2023/06/03 00:36:29;;;;;;;1.25;1.15;;;11.30;99.90;;;;;;5053597;28;20439;-36
2023/06/03 00:38:55;;;;;;;1.30;1.08;;;11.30;99.90;;;;;;5053630;28;20041;-36
2023/06/03 00:41:21;;;;;;;1.95;1.20;;;11.20;99.90;;;;;;5047328;28;20045;-35
2023/06/03 00:43:47;;;;;;;4.03;1.40;;;11.10;99.90;;;;;;5050917;28;20048;-38
2023/06/03 00:46:14;;;;;;;2.00;1.17;;;11.10;99.90;;;;;;5059197;28;20032;-35
2023/06/03 00:48:41;;;;;;;1.75;0.98;;;11.10;99.90;;;;;;5044914;28;20076;-39
2023/06/03 00:51:07;;;;;;;1.80;1.02;;;11.10;99.90;;;;;;5047673;28;20510;-40
2023/06/03 00:53:34;;;;;;;1.17;0.90;;;11.00;99.90;;;;;;5053205;28;20033;-37
2023/06/03 00:55:59;;;;;;;1.42;1.08;;;11.00;99.90;;;;;;5051177;28;20435;-35
2023/06/03 00:58:27;;;;;;;1.40;1.02;;;10.90;99.90;;;;;;5051050;28;20138;-35
2023/06/03 01:00:53;;;;;;;1.48;1.10;;;10.90;99.90;;;;;;5051948;28;20084;-35
2023/06/03 01:03:19;;;;;;;1.85;1.10;;;10.80;99.90;;;;;;5032757;28;20075;-36
2023/06/03 01:06:01;;;;;;;2.15;1.20;;;10.80;99.90;;;;;;5056875;28;20033;-36
2023/06/03 01:08:45;;;;;;;1.10;1.00;;;10.70;99.90;;;;;;5055826;28;20043;-36
2023/06/03 01:11:38;;;;;;;2.25;1.10;;;10.70;99.90;;;;;;5052689;28;20037;-34
2023/06/03 01:14:15;;;;;;;1.42;1.10;;;10.60;99.90;;;;;;5040030;28;20406;-35
2023/06/03 01:16:44;;;;;;;2.70;1.10;;;10.50;99.90;;;;;;5062322;28;20036;-36
2023/06/03 01:19:34;;;;;;;1.88;1.05;;;10.50;99.90;;;;;;5046829;28;20048;-34
2023/06/03 01:22:02;;;;;;;1.13;1.02;;;10.50;99.90;;;;;;5050462;28;20094;-35
2023/06/03 01:24:30;;;;;;;1.88;1.55;;;10.40;99.90;;;;;;5051783;28;20041;-36
2023/06/03 01:26:57;;;;;;;2.35;1.08;;;10.30;99.90;;;;;;5051886;28;20086;-34
2023/06/03 01:29:24;;;;;;;1.85;1.10;;;10.30;99.90;;;;;;5051659;28;20040;-35
2023/06/03 01:31:51;;;;;;;1.52;1.23;;;10.30;99.90;;;;;;5053560;28;20033;-35
2023/06/03 01:34:17;;;;;;;1.83;1.10;;;10.30;99.90;;;;;;5049979;28;20061;-36
2023/06/03 01:36:42;;;;;;;4.00;1.20;;;10.20;99.90;;;;;;5051964;28;20041;-38
2023/06/03 01:39:09;;;;;;;1.65;1.02;;;10.10;99.90;;;;;;5050361;28;20110;-36
2023/06/03 01:41:38;;;;;;;1.20;1.00;;;10.10;99.90;;;;;;5052987;28;20037;-38
2023/06/03 01:44:04;;;;;;;1.98;0.90;;;10.10;99.90;;;;;;5052913;28;20032;-37
2023/06/03 01:46:30;;;;;;;1.85;0.90;;;10.00;99.90;;;;;;5052136;28;20044;-37
2023/06/03 01:48:56;;;;;;;2.20;1.15;;;10.00;99.90;;;;;;5052988;28;20048;-34
2023/06/03 01:51:26;;;;;;;2.40;1.10;;;10.00;99.90;;;;;;5049398;28;20598;-38
2023/06/03 01:53:51;;;;;;;1.42;1.08;;;10.00;99.90;;;;;;5051810;28;20025;-35
2023/06/03 01:56:17;;;;;;;2.40;1.30;;;9.90;99.90;;;;;;5053635;28;20047;-35
2023/06/03 01:58:43;;;;;;;2.15;0.80;;;9.90;99.90;;;;;;5043484;28;20033;-35
2023/06/03 02:01:09;;;;;;;1.20;0.85;;;9.90;99.90;;;;;;5050001;28;20455;-35
2023/06/03 02:03:35;;;;;;;2.28;1.10;;;9.90;99.90;;;;;;5050084;28;20075;-36
2023/06/03 02:06:01;;;;;;;4.57;1.10;;;9.90;99.90;;;;;;5046362;28;20032;-36
2023/06/03 02:08:27;;;;;;;1.35;1.08;;;9.80;99.90;;;;;;5039869;28;20493;-36
2023/06/03 02:10:53;;;;;;;1.33;0.93;;;9.80;99.90;;;;;;5051058;28;20498;-36
2023/06/03 02:13:20;;;;;;;1.58;1.05;;;9.80;99.90;;;;;;5059192;28;20037;-37
2023/06/03 02:15:46;;;;;;;1.25;1.05;;;9.70;99.90;;;;;;5048958;28;20033;-38
2023/06/03 02:18:12;;;;;;;1.35;1.00;;;9.70;99.90;;;;;;5052246;28;20045;-36
2023/06/03 02:20:38;;;;;;;1.20;1.10;;;9.60;99.90;;;;;;5051481;28;20052;-36
2023/06/03 02:23:04;;;;;;;2.30;1.25;;;9.60;99.90;;;;;;5045861;28;20029;-36
2023/06/03 02:25:29;;;;;;;1.15;1.00;;;9.60;99.90;;;;;;5050638;28;20033;-36
2023/06/03 02:27:56;;;;;;;2.45;1.00;;;9.50;99.90;;;;;;5051146;28;20029;-33
2023/06/03 02:30:22;;;;;;;1.88;1.08;;;9.50;99.90;;;;;;5048177;28;20052;-35
2023/06/03 02:32:50;;;;;;;1.83;1.30;;;9.50;99.90;;;;;;5067462;28;20045;-35
2023/06/03 02:35:16;;;;;;;1.25;1.10;;;9.40;99.90;;;;;;5048029;28;20044;-35
2023/06/03 02:37:42;;;;;;;1.52;1.30;;;9.40;99.90;;;;;;5050351;28;20155;-38
2023/06/03 02:40:09;;;;;;;1.30;1.02;;;9.40;99.90;;;;;;5043818;28;20044;-33
2023/06/03 02:42:38;;;;;;;1.60;1.30;;;9.30;99.90;;;;;;5050621;28;20056;-35
2023/06/03 02:45:05;;;;;;;1.90;1.15;;;9.30;99.90;;;;;;5050835;28;20482;-35
2023/06/03 02:47:32;;;;;;;2.83;1.30;;;9.20;99.90;;;;;;5051372;28;20075;-35
2023/06/03 02:49:58;;;;;;;2.50;1.40;;;9.20;99.90;;;;;;5047434;28;20033;-37
2023/06/03 02:52:23;;;;;;;1.80;1.05;;;9.20;99.90;;;;;;5056153;28;20053;-35
2023/06/03 02:54:50;;;;;;;1.90;1.40;;;9.10;99.90;;;;;;5050753;28;20037;-35
2023/06/03 02:57:15;;;;;;;2.47;1.35;;;9.10;99.90;;;;;;5050645;28;20048;-36
2023/06/03 02:59:42;;;;;;;3.78;1.40;;;9.10;99.90;;;;;;5050269;28;20041;-35
2023/06/03 03:02:09;;;;;;;1.95;1.20;;;9.00;99.90;;;;;;5046502;28;20041;-33
2023/06/03 03:04:36;;;;;;;3.08;1.52;;;9.00;99.90;;;;;;5050157;28;20075;-36
2023/06/03 03:07:08;;;;;;;1.65;1.40;;;9.00;99.90;;;;;;5050578;28;20041;-44
2023/06/03 03:09:34;;;;;;;2.58;1.27;;;9.00;99.90;;;;;;5047776;28;20255;-37
2023/06/03 03:12:02;;;;;;;2.47;1.52;;;8.90;99.90;;;;;;5050765;28;20029;-38
2023/06/03 03:14:28;;;;;;;3.17;1.40;;;8.90;99.90;;;;;;5062301;28;20041;-35
2023/06/03 03:16:54;;;;;;;1.88;1.20;;;8.90;99.90;;;;;;5039537;28;20058;-34
2023/06/03 03:19:20;;;;;;;2.25;1.40;;;8.80;99.90;;;;;;5062514;28;20079;-34
2023/06/03 03:21:46;;;;;;;1.50;1.15;;;8.80;99.90;;;;;;5049825;28;20391;-35
2023/06/03 03:24:13;;;;;;;1.40;1.30;;;8.80;99.90;;;;;;5044887;28;20044;-35
2023/06/03 03:26:39;;;;;;;1.27;1.17;;;8.80;99.90;;;;;;5046475;28;20040;-35
2023/06/03 03:29:06;;;;;;;3.85;1.20;;;8.70;99.90;;;;;;5048422;28;20129;-34
2023/06/03 03:31:33;;;;;;;2.05;1.20;;;8.70;99.90;;;;;;5050378;28;20037;-35
2023/06/03 03:34:01;;;;;;;1.40;1.25;;;8.70;99.90;;;;;;5058152;28;20033;-35
2023/06/03 03:36:28;;;;;;;3.38;1.15;;;8.70;99.90;;;;;;5045360;28;20369;-35
2023/06/03 03:39:03;;;;;;;4.57;1.60;;;8.70;99.90;;;;;;5049488;28;20506;-36
2023/06/03 03:41:30;;;;;;;1.30;1.20;;;8.70;99.90;;;;;;5049899;28;20053;-35
2023/06/03 03:43:56;;;;;;;3.92;1.60;;;8.70;99.90;;;;;;5050860;28;20094;-37
2023/06/03 03:46:22;;;;;;;1.95;1.30;;;8.70;99.90;;;;;;5052994;28;20048;-35
2023/06/03 03:48:48;;;;;;;2.33;1.48;;;8.70;99.90;;;;;;5050087;28;20470;-36
2023/06/03 03:51:15;;;;;;;3.85;1.40;;;8.70;99.90;;;;;;5050150;28;20048;-35
2023/06/03 03:53:46;;;;;;;2.35;1.35;;;8.70;99.90;;;;;;5049926;28;20036;-35
2023/06/03 03:56:25;;;;;;;1.85;1.50;;;8.70;99.90;;;;;;5045845;28;20099;-34
2023/06/03 03:58:52;;;;;;;3.15;1.50;;;8.70;99.90;;;;;;5051258;28;20427;-37
2023/06/03 04:01:23;;;;;;;2.03;1.30;;;8.70;99.90;;;;;;5049904;28;20454;-35
2023/06/03 04:03:51;;;;;;;3.92;1.65;;;8.70;99.90;;;;;;5044999;28;20036;-37
2023/06/03 04:06:38;;;;;;;1.60;1.50;;;8.70;99.90;;;;;;5046922;28;20388;-35
2023/06/03 04:09:05;;;;;;;2.08;1.50;;;8.80;99.90;;;;;;5049840;28;20033;-37
2023/06/03 04:11:38;;;;;;;2.33;1.35;;;8.80;99.90;;;;;;5049744;28;20033;-36
2023/06/03 04:14:08;;;;;;;1.75;1.30;;;8.80;99.90;;;;;;5049865;28;20074;-35
2023/06/03 04:16:56;;;;;;;4.07;1.67;;;8.80;99.90;;;;;;5046417;28;20033;-35
2023/06/03 04:19:32;;;;;;;2.00;1.35;;;8.90;99.90;;;;;;5049719;28;20045;-36
2023/06/03 04:22:02;;;;;;;3.17;1.42;;;8.90;99.90;;;;;;5046153;28;20073;-34
2023/06/03 04:24:29;;;;;;;3.20;1.58;;;8.90;99.90;;;;;;5049478;28;20120;-35
2023/06/03 04:26:55;;;;;;;2.63;1.55;;;8.90;99.90;;;;;;5053699;28;20033;-35
2023/06/03 04:29:22;;;;;;;1.42;1.10;;;8.90;99.90;;;;;;5048833;28;20037;-35
2023/06/03 04:31:48;;;;;;;4.00;1.52;;;9.00;99.90;;;;;;5054344;28;20089;-36
2023/06/03 04:34:14;;;;;;;2.70;1.20;;;9.10;99.90;;;;;;5046679;28;20497;-34
2023/06/03 04:36:40;;;;;;;1.25;1.15;;;9.10;99.90;;;;;;5053715;28;20048;-35
2023/06/03 04:39:08;;;;;;;1.52;1.42;;;9.10;99.90;;;;;;5067158;28;20071;-35
2023/06/03 04:41:37;;;;;;;2.75;1.45;;;9.20;99.90;;;;;;5053168;28;20041;-35
2023/06/03 04:44:03;;;;;;;2.60;1.45;;;9.20;99.90;;;;;;5053018;28;20120;-34
2023/06/03 04:46:30;;;;;;;1.58;1.27;;;9.30;99.90;;;;;;5054590;28;20136;-35
2023/06/03 04:48:57;;;;;;;4.38;1.40;;;9.30;99.90;;;;;;5049942;28;20037;-35
2023/06/03 04:51:29;;;;;;;2.67;1.65;;;9.40;99.90;;;;;;5049281;28;20037;-38
2023/06/03 04:53:59;;;;;;;2.28;1.50;;;9.40;99.90;;;;;;5052783;28;20029;-35
2023/06/03 04:56:29;;;;;;;2.53;1.55;;;9.50;99.90;;;;;;5053464;28;20064;-33
2023/06/03 04:59:00;;;;;;;2.35;1.58;;;9.50;99.90;;;;;;5051362;28;20486;-36
2023/06/03 05:01:27;;;;;;;2.38;1.52;;;9.60;99.90;;;;;;5033934;28;20079;-35
2023/06/03 05:03:54;;;;;;;1.60;1.50;;;9.60;99.90;;;;;;5053692;28;20055;-35
2023/06/03 05:06:21;;;;;;;2.38;1.52;;;9.70;99.90;;;;;;5052104;28;20055;-37
2023/06/03 05:08:48;;;;;;;2.22;1.30;;;9.80;99.90;;;;;;5054328;28;20041;-34
2023/06/03 05:11:15;;;;;;;2.15;1.17;;;9.90;99.90;;;;;;5057029;28;20079;-34
2023/06/03 05:13:42;;;;;;;1.90;1.55;;;9.90;99.90;;;;;;5051147;28;20032;-39
2023/06/03 05:16:09;;;;;;;1.73;1.17;;;10.00;99.90;;;;;;5049498;28;20071;-35
2023/06/03 05:18:36;;;;;;;3.42;1.63;;;10.10;99.90;;;;;;5052111;28;20401;-37
2023/06/03 05:21:02;;;;;;;3.25;1.50;;;10.20;99.90;;;;;;5051081;28;20037;-37
2023/06/03 05:23:28;;;;;;;3.10;1.27;;;10.30;99.90;;;;;;5057254;28;20044;-37
2023/06/03 05:25:54;;;;;;;2.65;1.75;;;10.40;99.90;;;;;;5035563;28;20047;-39
2023/06/03 05:28:21;;;;;;;3.70;1.67;;;10.50;99.90;;;;;;5051598;28;20033;-36
2023/06/03 05:30:47;;;;;;;2.05;1.48;;;10.60;99.90;;;;;;5052278;28;20037;-36
2023/06/03 05:33:30;;;;;;;2.17;1.40;;;10.70;99.90;;;;;;5050126;28;20397;-46
2023/06/03 05:35:58;;;;;;;2.10;1.70;;;10.80;99.90;;;;;;5046724;28;20163;-37
2023/06/03 05:38:24;;;;;;;2.08;1.65;;;10.90;99.90;;;;;;5048060;28;20474;-38
2023/06/03 05:40:51;;;;;;;2.25;1.73;;;11.00;99.90;;;;;;5051743;28;20037;-36
2023/06/03 05:43:17;;;;;;;2.08;1.55;;;11.10;99.90;;;;;;5051806;28;20126;-35
2023/06/03 05:45:46;;;;;;;1.50;1.33;;;11.30;99.90;;;;;;5049320;28;20029;-35
2023/06/03 05:48:12;;;;;;;2.35;1.45;;;11.40;99.90;;;;;;5039062;28;20037;-35
2023/06/03 05:50:49;;;;;;;3.97;1.60;;;11.50;99.90;;;;;;5041775;28;20120;-36
2023/06/03 05:53:21;;;;;;;1.60;1.48;;;11.60;99.90;;;;;;5051260;28;20453;-35
2023/06/03 05:55:50;;;;;;;4.07;1.48;;;11.80;99.90;;;;;;5051567;28;20466;-36
2023/06/03 05:58:17;;;;;;;3.67;1.50;;;11.90;99.90;;;;;;5044841;28;20074;-39
2023/06/03 06:00:43;;;;;;;4.25;1.45;;;12.00;99.90;;;;;;5049425;28;20035;-35
2023/06/03 06:03:09;;;;;;;2.20;1.52;;;12.10;99.90;;;;;;5049258;28;20091;-36
2023/06/03 06:05:35;;;;;;;1.92;1.38;;;12.30;99.90;;;;;;5052691;28;20486;-35
2023/06/03 06:08:01;;;;;;;3.17;1.52;;;12.40;99.90;;;;;;5050882;28;20043;-36
2023/06/03 06:10:28;;;;;;;2.35;1.23;;;12.50;99.90;;;;;;5051380;28;20047;-35
2023/06/03 06:12:54;;;;;;;4.60;1.40;;;12.60;99.90;;;;;;5053988;28;20542;-36
2023/06/03 06:15:21;;;;;;;2.08;1.15;;;12.80;99.90;;;;;;5053949;28;20125;-37
2023/06/03 06:17:48;;;;;;;5.80;1.75;;;12.90;99.90;;;;;;5045130;28;20482;-35
2023/06/03 06:20:14;;;;;;;2.17;1.40;;;13.00;99.90;;;;;;5045420;28;20139;-36
2023/06/03 06:22:40;;;;;;;4.07;1.25;;;13.10;99.90;;;;;;5047042;28;20114;-38
2023/06/03 06:25:08;;;;;;;2.08;1.20;;;13.20;99.90;;;;;;5046527;28;20044;-37
2023/06/03 06:27:34;;;;;;;3.70;1.23;;;13.40;99.90;;;;;;5044483;28;20436;-35
2023/06/03 06:30:01;;;;;;;1.88;1.13;;;13.50;99.90;;;;;;5043699;28;20036;-36
2023/06/03 06:32:27;;;;;;;5.53;1.45;;;13.60;99.90;;;;;;5040832;28;20049;-37
2023/06/03 06:34:53;;;;;;;1.40;1.15;;;13.70;99.90;;;;;;5054965;28;20036;-36
2023/06/03 06:37:20;;;;;;;2.80;1.00;;;13.80;99.90;;;;;;5034711;28;20048;-36
2023/06/03 06:39:50;;;;;;;1.92;1.00;;;14.00;99.90;;;;;;5049337;28;20044;-35
2023/06/03 06:42:22;;;;;;;2.78;1.15;;;14.10;99.90;;;;;;5051234;28;20049;-36
2023/06/03 06:44:49;;;;;;;2.80;0.85;;;14.30;99.90;;;;;;5051860;28;20067;-38
2023/06/03 06:47:25;;;;;;;2.60;1.10;;;14.40;99.90;;;;;;5049865;28;20055;-36
2023/06/03 06:49:55;;;;;;;3.58;1.10;;;14.50;99.90;;;;;;5049070;28;20116;-38
2023/06/03 06:52:25;;;;;;;3.05;1.20;;;14.60;99.90;;;;;;5044720;28;20044;-38
2023/06/03 06:54:58;;;;;;;1.48;1.00;;;14.70;99.90;;;;;;5052993;28;20377;-36
2023/06/03 06:57:28;;;;;;;2.40;0.93;;;14.80;98.90;;;;;;5051450;28;20033;-34
2023/06/03 06:59:54;;;;;;;2.13;0.90;;;15.00;97.90;;;;;;5047958;28;20112;-37
2023/06/03 07:02:21;;;;;;;2.53;1.10;;;15.20;97.80;;;;;;5046760;28;20498;-37
2023/06/03 07:04:51;;;;;;;3.13;0.90;;;15.40;96.20;;;;;;5047485;28;20048;-39
2023/06/03 07:07:17;;;;;;;2.13;1.05;;;15.60;94.90;;;;;;5036854;28;20069;-37
2023/06/03 07:09:43;;;;;;;2.72;1.02;;;15.70;94.90;;;;;;5044274;28;20091;-36
2023/06/03 07:12:09;;;;;;;1.00;0.90;;;15.90;94.00;;;;;;5038768;28;20501;-36
2023/06/03 07:14:35;;;;;;;1.95;1.00;;;16.00;93.50;;;;;;5037891;28;20034;-38
2023/06/03 07:17:01;;;;;;;2.35;1.00;;;16.20;93.00;;;;;;5036218;28;20076;-37
2023/06/03 07:19:39;;;;;;;2.08;1.50;;;16.30;92.50;;;;;;5043803;28;20521;-40
2023/06/03 07:22:06;;;;;;;1.80;1.30;;;16.40;92.40;;;;;;5039723;28;20039;-36
2023/06/03 07:24:35;;;;;;;1.77;0.90;;;16.60;91.70;;;;;;5042221;28;20371;-36
2023/06/03 07:27:01;;;;;;;1.75;1.08;;;16.70;91.10;;;;;;5036980;28;20132;-37
2023/06/03 07:29:35;;;;;;;2.33;1.02;;;16.90;91.10;;;;;;5044783;28;20116;-39
2023/06/03 07:32:01;;;;;;;1.50;1.00;;;16.90;88.70;;;;;;5049249;28;20037;-34
2023/06/03 07:34:28;;;;;;;1.73;0.88;;;17.00;88.60;;;;;;5049595;28;20071;-40
2023/06/03 07:36:59;;;;;;;1.27;1.00;;;17.30;89.20;;;;;;5032572;28;20045;-36
2023/06/03 07:39:25;;;;;;;1.08;0.90;;;17.40;88.10;;;;;;5048315;28;20422;-36
2023/06/03 07:41:51;;;;;;;0.70;0.70;;;17.60;85.80;;;;;;5053505;28;20044;-36
2023/06/03 07:44:29;;;;;;;1.00;0.90;;;17.70;81.70;;;;;;5052611;28;20044;-39
2023/06/03 07:46:59;;;;;;;1.88;0.80;;;17.70;82.20;;;;;;5059942;28;20044;-37
2023/06/03 07:49:25;;;;;;;1.48;0.77;;;17.70;82.90;;;;;;5051048;28;20174;-40
2023/06/03 07:51:52;;;;;;;2.53;1.08;;;17.60;81.30;;;;;;5051604;28;20050;-38
2023/06/03 07:54:19;;;;;;;1.10;0.80;;;17.60;79.70;;;;;;5049022;28;20041;-36
2023/06/03 07:56:46;;;;;;;1.33;0.82;;;17.60;77.80;;;;;;5049448;28;20525;-36
2023/06/03 07:59:15;;;;;;;1.25;1.00;;;17.80;78.80;;;;;;5044755;28;20394;-36
2023/06/03 08:01:42;;;;;;;1.15;0.70;;;18.00;78.00;;;;;;5047107;28;20038;-36
2023/06/03 08:04:28;;;;;;;2.35;0.80;;;18.20;76.40;;;;;;5045500;28;20040;-36
2023/06/03 08:06:55;;;;;;;1.90;1.15;;;18.40;71.70;;;;;;5055585;28;20038;-37
2023/06/03 08:09:34;;;;;;;0.90;0.80;;;18.60;73.00;;;;;;5055169;28;20033;-36
2023/06/03 08:12:06;;;;;;;1.85;0.80;;;18.70;71.00;;;;;;5070684;28;20630;-37
2023/06/03 08:14:34;;;;;;;0.98;0.75;;;18.90;70.90;;;;;;5046364;28;20052;-39
2023/06/03 08:17:10;;;;;;;1.08;0.60;;;19.00;68.50;;;;;;5051647;28;20120;-37
2023/06/03 08:19:36;;;;;;;1.40;1.10;;;19.10;64.00;;;;;;5051456;28;20382;-38
2023/06/03 08:22:20;;;;;;;1.85;0.85;;;19.40;65.60;;;;;;5050297;28;20037;-34
2023/06/03 08:24:46;;;;;;;1.55;0.93;;;19.70;62.80;;;;;;5053520;28;20079;-38
2023/06/03 08:27:12;;;;;;;1.75;0.70;;;19.80;62.40;;;;;;5054641;28;20077;-38
2023/06/03 08:29:38;;;;;;;1.17;0.75;;;19.80;61.10;;;;;;5058717;28;20513;-39
2023/06/03 08:32:04;;;;;;;2.50;0.75;;;19.80;60.60;;;;;;5057239;28;20556;-35
2023/06/03 08:34:30;;;;;;;1.70;0.73;;;19.90;58.80;;;;;;5052366;28;20045;-37
2023/06/03 08:36:57;;;;;;;1.17;0.70;;;20.10;57.30;;;;;;5049089;28;20033;-35
2023/06/03 08:39:23;;;;;;;3.85;0.90;;;20.20;57.50;;;;;;5056392;28;20041;-38
2023/06/03 08:41:59;;;;;;;2.47;0.90;;;20.30;56.80;;;;;;5052861;28;20051;-37
2023/06/03 08:44:50;;;;;;;2.58;0.93;;;20.40;54.10;;;;;;5050068;28;20124;-37
2023/06/03 08:47:53;;;;;;;1.40;0.73;;;20.20;54.10;;;;;;5051433;28;20075;-34
2023/06/03 08:50:25;;;;;;;4.07;0.80;;;19.90;55.50;;;;;;5050551;28;20068;-34
2023/06/03 08:52:55;;;;;;;1.80;1.05;;;19.70;56.50;;;;;;5050934;28;20029;-38
2023/06/03 08:55:21;;;;;;;1.83;0.80;;;19.60;56.60;;;;;;5023955;28;20040;-37
2023/06/03 08:58:00;;;;;;;3.70;0.80;;;19.60;56.80;;;;;;5052515;28;20033;-37
2023/06/03 09:00:26;;;;;;;1.63;0.95;;;19.80;57.00;;;;;;5050741;28;20029;-37
2023/06/03 09:02:53;;;;;;;1.10;0.88;;;19.80;56.60;;;;;;5051635;28;20430;-38
2023/06/03 09:05:20;;;;;;;2.38;0.95;;;19.70;56.20;;;;;;5057062;28;20069;-37
2023/06/03 09:07:47;;;;;;;2.10;0.93;;;19.60;55.70;;;;;;5049713;28;20048;-38
2023/06/03 09:10:18;;;;;;;1.75;0.80;;;19.40;56.30;;;;;;5046676;28;20036;-37
2023/06/03 09:12:45;;;;;;;1.05;0.80;;;19.40;56.80;;;;;;5058458;28;20055;-37
2023/06/03 09:15:14;;;;;;;1.92;0.85;;;19.20;56.40;;;;;;5050476;28;20064;-35
2023/06/03 09:17:44;;;;;;;1.92;0.98;;;19.10;55.20;;;;;;5050464;28;20048;-37
2023/06/03 09:20:12;;;;;;;2.03;0.82;;;19.00;56.20;;;;;;5050860;28;20048;-38
2023/06/03 09:22:46;;;;;;;2.40;1.13;;;19.00;56.50;;;;;;5048836;28;20486;-40
2023/06/03 09:25:12;;;;;;;1.85;0.70;;;19.30;56.00;;;;;;5056897;28;20103;-39
2023/06/03 09:27:40;;;;;;;2.03;0.90;;;19.70;55.80;;;;;;5051585;28;20493;-37
2023/06/03 09:30:07;;;;;;;1.33;0.80;;;20.30;56.60;;;;;;5056004;28;20060;-37
2023/06/03 09:32:36;;;;;;;4.60;1.25;;;20.60;55.20;;;;;;5050986;28;20059;-36
2023/06/03 09:35:05;;;;;;;2.47;1.10;;;21.20;55.80;;;;;;5055449;28;20405;-37
2023/06/03 09:37:32;;;;;;;2.80;1.00;;;21.60;55.70;;;;;;5049412;28;20033;-37
2023/06/03 09:39:59;;;;;;;1.20;1.05;;;22.10;54.40;;;;;;5051960;28;20551;-37
2023/06/03 09:42:45;;;;;;;3.60;1.48;;;22.40;53.50;;;;;;5050040;28;20042;-36
2023/06/03 09:45:30;;;;;;;1.38;0.90;;;22.70;50.80;;;;;;5069060;28;20071;-38
2023/06/03 09:48:00;;;;;;;3.45;0.90;;;23.00;51.10;;;;;;5054721;28;20041;-38
2023/06/03 09:50:28;;;;;;;2.90;1.00;;;23.00;51.00;;;;;;5051295;28;20045;-40
2023/06/03 09:52:54;;;;;;;1.95;0.88;;;23.00;51.50;;;;;;5048169;28;20025;-47
2023/06/03 09:55:28;;;;;;;4.45;1.20;;;23.20;50.00;;;;;;5048737;28;20060;-37
2023/06/03 09:58:04;;;;;;;1.02;0.70;;;23.60;50.70;;;;;;5050712;28;20049;-37
2023/06/03 10:00:46;;;;;;;1.88;1.17;;;23.60;48.00;;;;;;5051224;28;20052;-36
2023/06/03 10:03:12;;;;;;;1.40;1.00;;;23.40;47.90;;;;;;5052419;28;20076;-39
2023/06/03 10:05:38;;;;;;;0.85;0.75;;;23.20;47.60;;;;;;5051740;28;20374;-37
2023/06/03 10:08:05;;;;;;;2.22;0.80;;;23.20;47.90;;;;;;5051938;28;20521;-37
2023/06/03 10:10:32;;;;;;;1.88;0.90;;;23.40;48.30;;;;;;5045629;28;20132;-37
2023/06/03 10:13:18;;;;;;;2.47;0.90;;;23.50;48.20;;;;;;5047358;28;20509;-37
2023/06/03 10:15:44;;;;;;;1.63;1.00;;;23.60;45.90;;;;;;5051069;28;20077;-36
2023/06/03 10:18:10;;;;;;;1.73;1.00;;;23.50;47.50;;;;;;5032773;28;20134;-40
2023/06/03 10:20:38;;;;;;;1.48;0.88;;;23.60;47.20;;;;;;5032802;28;20129;-37
2023/06/03 10:23:06;;;;;;;2.30;0.80;;;23.80;47.60;;;;;;5046231;28;20379;-36
2023/06/03 10:25:43;;;;;;;7.43;0.98;;;23.80;45.60;;;;;;5054079;28;20498;-37
2023/06/03 10:28:11;;;;;;;1.17;0.77;;;23.90;44.80;;;;;;5051532;28;20045;-34
2023/06/03 10:30:39;;;;;;;1.88;0.90;;;23.80;45.60;;;;;;5052091;28;20111;-34
2023/06/03 10:33:08;;;;;;;1.23;0.93;;;24.10;45.30;;;;;;5052111;28;20399;-34
2023/06/03 10:35:36;;;;;;;11.32;0.98;;;24.30;45.60;;;;;;5052337;28;20280;-34
2023/06/03 10:38:05;;;;;;;2.28;0.85;;;24.30;45.40;;;;;;5051236;28;20037;-37
2023/06/03 10:40:31;;;;;;;2.15;0.85;;;24.20;44.00;;;;;;5051029;28;20075;-40
2023/06/03 10:42:57;;;;;;;0.88;0.88;;;24.20;44.70;;;;;;5030885;28;20068;-36
2023/06/03 10:45:26;;;;;;;2.35;1.10;;;24.40;44.40;;;;;;5044897;28;20037;-36
2023/06/03 10:47:58;;;;;;;2.00;0.70;;;24.60;44.40;;;;;;5047506;28;20402;-37
2023/06/03 10:50:49;;;;;;;1.85;0.85;;;24.80;43.80;;;;;;5051000;28;20453;-37
2023/06/03 10:53:37;;;;;;;1.92;0.90;;;24.80;41.70;;;;;;5050805;28;20048;-37
2023/06/03 10:56:09;;;;;;;1.00;0.70;;;24.90;41.90;;;;;;5048646;28;20119;-39
2023/06/03 10:58:39;;;;;;;1.13;0.90;;;24.90;42.30;;;;;;5042512;28;20667;-37
2023/06/03 11:01:05;;;;;;;1.90;0.80;;;25.30;44.00;;;;;;5054589;28;20090;-37
2023/06/03 11:03:33;;;;;;;1.25;0.88;;;25.00;43.10;;;;;;5046231;28;20176;-37
2023/06/03 11:06:23;;;;;;;2.10;0.80;;;25.10;42.30;;;;;;5048177;28;20115;-38
2023/06/03 11:08:59;;;;;;;1.83;0.73;;;25.30;40.00;;;;;;5051060;28;20033;-37
2023/06/03 11:11:44;;;;;;;2.22;0.80;;;25.60;41.30;;;;;;5049736;28;20041;-38
2023/06/03 11:14:30;;;;;;;1.83;0.90;;;25.80;40.90;;;;;;5041753;28;20041;-37
2023/06/03 11:16:59;;;;;;;2.80;1.20;;;25.50;38.60;;;;;;5037238;28;20051;-36
2023/06/03 11:19:30;;;;;;;2.28;0.90;;;25.50;39.50;;;;;;5059361;28;20080;-37
2023/06/03 11:22:00;;;;;;;1.05;0.80;;;25.10;39.10;;;;;;5051246;28;20075;-37
2023/06/03 11:24:38;;;;;;;2.13;0.80;;;25.00;40.80;;;;;;5047857;28;20037;-35
2023/06/03 11:27:10;;;;;;;1.48;0.95;;;25.20;40.70;;;;;;5067073;28;20127;-34
2023/06/03 11:29:49;;;;;;;1.75;0.90;;;25.10;41.60;;;;;;5066871;28;20116;-35
2023/06/03 11:32:24;;;;;;;1.88;0.80;;;25.60;40.60;;;;;;5051395;28;20072;-36
2023/06/03 11:35:10;;;;;;;1.25;0.80;;;25.90;41.20;;;;;;5048601;28;20037;-36
2023/06/03 11:37:48;;;;;;;5.55;0.90;;;26.10;40.80;;;;;;5043633;28;20102;-38
2023/06/03 11:40:19;;;;;;;1.45;1.02;;;26.00;40.40;;;;;;5048672;28;20049;-37
2023/06/03 11:42:48;;;;;;;1.48;1.02;;;26.50;41.70;;;;;;5048890;28;20040;-38
2023/06/03 11:45:27;;;;;;;3.58;0.85;;;26.50;40.80;;;;;;5069559;28;20044;-38
2023/06/03 11:47:59;;;;;;;2.75;1.00;;;26.40;40.20;;;;;;5066066;28;20153;-38
2023/06/03 11:50:46;;;;;;;1.10;0.90;;;26.50;40.70;;;;;;5046782;28;20037;-37
2023/06/03 11:53:32;;;;;;;3.65;0.88;;;26.60;40.80;;;;;;5030308;28;20363;-38
2023/06/03 11:56:09;;;;;;;1.92;0.80;;;26.70;41.40;;;;;;5052502;28;20041;-38
2023/06/03 11:58:38;;;;;;;1.50;0.80;;;26.60;38.40;;;;;;5052680;28;20044;-38
2023/06/03 12:01:17;;;;;;;1.13;0.90;;;26.80;39.80;;;;;;5064690;28;20037;-38
2023/06/03 12:03:59;;;;;;;2.63;0.85;;;27.20;40.90;;;;;;5042983;28;20215;-37
2023/06/03 12:06:25;;;;;;;1.73;0.83;;;27.50;39.40;;;;;;5049675;28;20052;-36
2023/06/03 12:08:51;;;;;;;1.60;0.80;;;27.70;40.90;;;;;;5045876;28;20117;-35
2023/06/03 12:11:24;;;;;;;2.42;0.90;;;27.80;40.40;;;;;;5052170;28;20044;-35
2023/06/03 12:13:50;;;;;;;2.63;0.80;;;27.90;39.70;;;;;;5054366;28;20076;-35
2023/06/03 12:16:36;;;;;;;3.28;1.00;;;28.00;39.20;;;;;;5053497;28;20091;-34
2023/06/03 12:19:05;;;;;;;2.25;0.80;;;28.10;38.70;;;;;;5053774;28;20039;-36
2023/06/03 12:21:36;;;;;;;2.58;0.82;;;27.50;37.90;;;;;;5050237;28;20025;-36
2023/06/03 12:24:12;;;;;;;1.17;0.90;;;27.50;39.00;;;;;;5047808;28;20064;-39
2023/06/03 12:26:47;;;;;;;3.80;0.90;;;27.50;39.50;;;;;;5052796;28;20037;-35
2023/06/03 12:29:15;;;;;;;1.52;0.90;;;27.80;39.00;;;;;;5051507;28;20033;-34
2023/06/03 12:31:58;;;;;;;2.08;0.98;;;28.00;38.70;;;;;;5035790;28;20051;-35
2023/06/03 12:34:51;;;;;;;3.97;0.90;;;28.30;37.60;;;;;;5052168;28;20040;-35
2023/06/03 12:37:29;;;;;;;0.75;0.75;;;28.70;38.00;;;;;;5037899;28;20045;-36
2023/06/03 12:39:57;;;;;;;48.95;7.35;;;28.80;36.30;;;;;;5052357;28;20398;-39
2023/06/03 12:42:39;;;;;;;80.10;10.43;;;28.90;37.70;;;;;;5053006;28;20041;-40
2023/06/03 12:45:06;;;;;;;2.08;0.80;;;29.10;37.10;;;;;;5053100;28;20044;-38
2023/06/03 12:47:46;;;;;;;3.63;1.10;;;29.00;36.90;;;;;;5053338;28;20044;-37
2023/06/03 12:50:12;;;;;;;3.20;0.90;;;28.80;34.40;;;;;;5050673;28;20061;-37
2023/06/03 12:52:39;;;;;;;2.22;0.90;;;28.70;36.50;;;;;;5051564;28;20144;-39
2023/06/03 12:55:07;;;;;;;3.45;1.10;;;28.70;37.40;;;;;;5050092;28;20037;-37
2023/06/03 12:57:34;;;;;;;1.73;0.90;;;28.90;37.90;;;;;;5052676;28;20490;-39
2023/06/03 13:00:04;;;;;;;4.25;0.95;;;29.30;37.00;;;;;;5051954;28;20041;-37
2023/06/03 13:02:29;;;;;;;1.85;0.80;;;29.50;36.70;;;;;;5043268;28;20088;-37
2023/06/03 13:04:56;;;;;;;2.95;0.90;;;29.60;36.30;;;;;;5052278;28;20122;-39